Data for 05/26/2007

Time Sea-Level Adjusted Pressure Absolute Pressure Temperature Relative Humidity Dew Point   
(mb) (inHg) (mb) (inHg) (C) (F) (%) (C) (F)
00:05 1020 30.12 849 25.07 5.9 42.5 81 2.9 37.2
00:10 1020 30.12 849 25.07 5.8 42.4 82 3 37.3
00:15 1020 30.12 849 25.07 5.7 42.2 82 2.9 37.1
00:20 1020 30.12 849 25.07 5.6 42.1 82 2.9 37.1
00:25 1020 30.12 849 25.07 5.6 42.1 83 2.9 37.2
00:30 1020 30.12 849 25.07 5.6 42 83 2.9 37.2
00:35 1020 30.12 849 25.07 5.5 41.9 83 2.9 37.2
00:40 1020 30.12 849 25.07 5.4 41.8 83 2.8 37.1
00:45 1020 30.12 849 25.07 5.5 41.8 83 2.8 37
00:50 1020 30.12 849 25.07 5.5 41.9 82 2.7 36.9
00:55 1020 30.12 849 25.07 5.4 41.7 83 2.7 36.8
01:00 1020 30.12 850 25.1 5.3 41.6 83 2.6 36.7
01:05 1020 30.12 850 25.1 5.2 41.3 83 2.5 36.6
01:10 1020 30.12 850 25.1 5 40.9 84 2.4 36.4
01:15 1020 30.12 850 25.1 4.9 40.8 84 2.4 36.4
01:20 1020 30.12 850 25.1 4.8 40.7 84 2.4 36.3
01:25 1020 30.12 850 25.1 4.7 40.5 85 2.4 36.2
01:30 1020 30.12 850 25.1 4.6 40.4 85 2.3 36.1
01:35 1020 30.12 850 25.1 4.6 40.2 85 2.3 36.1
01:40 1020 30.12 850 25.1 4.5 40 85 2.2 36
01:45 1020 30.12 849 25.07 4.4 40 86 2.2 36
01:50 1020 30.12 849 25.07 4.4 39.9 86 2.3 36.1
01:55 1020 30.12 849 25.07 4.3 39.8 87 2.3 36.2
02:00 1020 30.12 849 25.07 4.3 39.7 87 2.4 36.2
02:05 1020 30.12 849 25.07 4.2 39.6 87 2.3 36.1
02:10 1020 30.12 849 25.07 4.2 39.6 87 2.3 36.1
02:15 1020 30.12 849 25.07 4.2 39.5 87 2.3 36.1
02:20 1020 30.12 849 25.07 4.2 39.6 87 2.2 36
02:25 1020 30.12 849 25.07 4.2 39.6 87 2.3 36.1
02:30 1020 30.12 849 25.07 4.2 39.6 87 2.3 36.1
02:35 1020 30.12 849 25.07 4.1 39.4 87 2.2 36
02:40 1020 30.12 849 25.07 4 39.2 88 2.1 35.8
02:45 1020 30.12 849 25.07 3.9 39.1 88 2.1 35.7
02:50 1020 30.12 849 25.07 3.9 39 87 2 35.6
02:55 1020 30.12 849 25.07 3.8 38.9 88 2 35.5
03:00 1020 30.12 849 25.07 3.8 38.8 88 1.9 35.5
03:05 1020 30.12 849 25.07 3.8 38.8 88 1.9 35.4
03:10 1020 30.12 849 25.07 3.8 38.9 88 2 35.5
03:15 1020 30.12 849 25.07 3.8 38.8 87 1.9 35.4
03:20 1020 30.12 849 25.07 3.8 38.8 88 2 35.7
03:25 1020 30.12 849 25.07 3.8 38.9 88 2.1 35.7
03:30 1020 30.12 849 25.07 3.7 38.7 88 2 35.6
03:35 1020 30.12 849 25.07 3.8 38.8 88 2 35.6
03:40 1020 30.12 849 25.07 3.7 38.7 88 1.9 35.5
03:45 1020 30.12 849 25.07 3.7 38.7 88 1.9 35.4
03:50 1020 30.12 849 25.07 3.7 38.7 88 2 35.5
03:55 1020 30.12 849 25.07 3.7 38.6 89 2 35.6
04:00 1020 30.12 849 25.07 3.7 38.6 89 2 35.6
04:05 1020 30.12 849 25.07 3.6 38.6 89 2 35.6
04:10 1020 30.12 849 25.07 3.6 38.6 89 1.9 35.5
04:15 1020 30.12 849 25.07 3.6 38.6 88 1.9 35.4
04:20 1020 30.12 849 25.07 3.6 38.5 88 1.8 35.3
04:25 1019 30.09 849 25.07 3.6 38.4 88 1.8 35.2
04:30 1019 30.09 849 25.07 3.5 38.3 88 1.7 35
04:35 1019 30.09 849 25.07 3.5 38.2 88 1.7 35
04:40 1019 30.09 849 25.07 3.4 38.1 88 1.6 34.9
04:45 1019 30.09 849 25.07 3.4 38.1 88 1.6 34.9
04:50 1019 30.09 849 25.07 3.4 38.1 88 1.6 35
04:55 1019 30.09 849 25.07 3.3 38 89 1.6 34.9
05:00 1019 30.09 849 25.07 3.3 37.9 88 1.5 34.8
05:05 1019 30.09 849 25.07 3.3 37.9 89 1.5 34.8
05:10 1019 30.09 849 25.07 3.2 37.8 88 1.5 34.7
05:15 1019 30.09 849 25.07 3.3 37.9 88 1.5 34.7
05:20 1019 30.09 849 25.07 3.3 37.9 88 1.5 34.7
05:25 1019 30.09 849 25.07 3.2 37.8 88 1.5 34.7
05:30 1019 30.09 849 25.07 3.2 37.8 88 1.5 34.7
05:35 1020 30.12 849 25.07 3.2 37.8 88 1.5 34.6
05:40 1020 30.12 849 25.07 3.2 37.7 88 1.5 34.6
05:45 1020 30.12 849 25.07 3.2 37.7 88 1.5 34.6
05:50 1020 30.12 849 25.07 3.2 37.7 88 1.4 34.6
05:55 1020 30.12 849 25.07 3.2 37.7 88 1.4 34.6
06:00 1020 30.12 849 25.07 3.1 37.7 88 1.4 34.5
06:05 1020 30.12 849 25.07 3.2 37.7 88 1.4 34.5
06:10 1020 30.12 849 25.07 3.2 37.8 88 1.4 34.6
06:15 1020 30.12 849 25.07 3.3 38 87 1.4 34.5
06:20 1020 30.12 849 25.07 3.4 38.2 87 1.4 34.5
06:25 1020 30.12 849 25.07 3.5 38.3 87 1.5 34.7
06:30 1020 30.12 849 25.07 3.6 38.5 86 1.5 34.7
06:35 1020 30.12 849 25.07 3.6 38.5 86 1.5 34.7
06:40 1020 30.12 849 25.07 3.7 38.7 86 1.6 34.8
06:45 1020 30.12 849 25.07 3.8 38.9 85 1.6 34.9
06:50 1020 30.12 849 25.07 4 39.1 85 1.6 34.9
06:55 1020 30.12 849 25.07 4.1 39.4 84 1.6 34.9
07:00 1020 30.12 849 25.07 4.1 39.5 84 1.6 34.9
07:05 1020 30.12 849 25.07 4.4 39.9 83 1.7 35.1
07:10 1020 30.12 849 25.07 4.5 40.1 83 1.8 35.3
07:15 1020 30.12 849 25.07 4.6 40.3 82 1.8 35.3
07:20 1020 30.12 849 25.07 4.6 40.4 83 1.9 35.5
07:25 1020 30.12 849 25.07 4.9 40.8 82 2 35.6
07:30 1020 30.12 849 25.07 5 41 80 1.8 35.3
07:35 1020 30.12 849 25.07 5.3 41.5 80 2.1 35.7
07:40 1020 30.12 849 25.07 5.3 41.6 79 2 35.6
07:45 1020 30.12 849 25.07 5.4 41.8 79 2.1 35.7
07:50 1020 30.12 849 25.07 5.6 42 78 2.1 35.8
07:55 1020 30.12 849 25.07 5.7 42.2 78 2.2 35.9
08:00 1020 30.12 849 25.07 5.9 42.6 77 2.1 35.9
08:05 1020 30.12 849 25.07 6.2 43.1 75 2.1 35.8
08:10 1020 30.12 849 25.07 6.7 44.1 74 2.4 36.4
08:15 1020 30.12 849 25.07 7 44.6 73 2.5 36.4
08:20 1020 30.12 849 25.07 7.2 44.9 73 2.6 36.7
08:25 1020 30.12 849 25.07 7.6 45.6 71 2.6 36.8
08:30 1020 30.12 849 25.07 7.8 46 70 2.7 36.8
08:35 1020 30.12 849 25.07 8 46.4 68 2.5 36.4
08:40 1020 30.12 849 25.07 7.9 46.3 69 2.6 36.7
08:45 1020 30.12 849 25.07 8.3 46.9 65 2.2 35.9
08:50 1020 30.12 849 25.07 9 48.1 61 1.9 35.4
08:55 1020 30.12 849 25.07 9.7 49.4 58 1.7 35.1
09:00 1020 30.12 849 25.07 9.6 49.3 60 2.3 36.1
09:05 1020 30.12 849 25.07 9.1 48.4 61 1.9 35.5
09:10 1020 30.12 849 25.07 9.1 48.4 61 2 35.7
09:15 1020 30.12 849 25.07 9.7 49.5 58 1.9 35.4
09:20 1020 30.12 849 25.07 10.7 51.3 54 1.8 35.2
09:25 1019 30.09 849 25.07 11.1 52 54 2.1 35.9
09:30 1020 30.12 849 25.07 11.4 52.5 54 2.4 36.2
09:35 1020 30.12 849 25.07 11.4 52.5 53 2.2 36
09:40 1020 30.12 849 25.07 11.6 52.9 53 2.4 36.3
09:45 1020 30.12 849 25.07 11.7 53.1 52 2.3 36.2
09:50 1020 30.12 849 25.07 11.9 53.4 53 2.6 36.7
09:55 1020 30.12 849 25.07 12.4 54.3 51 2.5 36.5
10:00 1020 30.12 849 25.07 12.4 54.3 50 2.4 36.3
10:05 1020 30.12 849 25.07 12.6 54.7 50 2.6 36.7
10:10 1020 30.12 849 25.07 13 55.5 48 2.2 36
10:15 1020 30.12 849 25.07 13.4 56.1 49 2.9 37.2
10:20 1020 30.12 849 25.07 12.9 55.2 52 3.3 37.9
10:25 1020 30.12 849 25.07 12.6 54.7 52 3 37.3
10:30 1020 30.12 849 25.07 13.8 56.8 48 2.9 37.2
10:35 1020 30.12 849 25.07 14.5 58.1 45 2.9 37.2
10:40 1019 30.09 849 25.07 14.8 58.7 44 2.7 36.9
10:45 1019 30.09 849 25.07 14.6 58.3 46 3.3 38
10:50 1019 30.09 849 25.07 14.4 57.8 47 3.4 38.1
10:55 1019 30.09 849 25.07 13.6 56.4 49 3 37.4
11:00 1019 30.09 849 25.07 14.5 58 44 2.4 36.3
11:05 1019 30.09 849 25.07 14.8 58.7 43 2.4 36.3
11:10 1019 30.09 849 25.07 15.2 59.4 43 2.7 36.8
11:15 1019 30.09 849 25.07 14.6 58.3 45 3 37.4
11:20 1019 30.09 849 25.07 14.6 58.3 46 3.2 37.7
11:25 1019 30.09 848 25.04 14.8 58.6 44 2.9 37.2
11:30 1019 30.09 848 25.04 15.4 59.6 43 2.9 37.2
11:35 1019 30.09 848 25.04 15.2 59.3 45 3.4 38.2
11:40 1019 30.09 848 25.04 14.9 58.8 45 3.3 38
11:45 1019 30.09 848 25.04 14.9 58.9 42 2.3 36.2
11:50 1019 30.09 848 25.04 15.9 60.6 40 2.4 36.4
11:55 1019 30.09 848 25.04 16.3 61.4 37 1.9 35.4
12:00 1019 30.09 848 25.04 16.6 61.8 36 1.7 35
12:05 1019 30.09 848 25.04 17.4 63.3 38 3.1 37.5
12:10 1019 30.09 848 25.04 16.8 62.2 41 3.6 38.5
12:15 1019 30.09 848 25.04 16.9 62.3 41 3.6 38.5
12:20 1019 30.09 848 25.04 16.5 61.7 40 2.9 37.2
12:25 1019 30.09 848 25.04 16 60.8 39 2.2 35.9
12:30 1019 30.09 848 25.04 15.5 59.8 40 2 35.7
12:35 1019 30.09 848 25.04 16.4 61.5 37 1.8 35.3
12:40 1019 30.09 848 25.04 16.5 61.6 37 1.7 35.1
12:45 1019 30.09 848 25.04 17.4 63.3 37 2.8 37.1
12:50 1019 30.09 848 25.04 17.1 62.7 30 -0.3 31.4
12:55 1019 30.09 848 25.04 17.7 63.8 31 0.4 32.8
13:00 1019 30.09 848 25.04 18.3 64.9 30 0.7 33.2
13:05 1018 30.06 848 25.04 17 62.6 34 1.1 34
13:10 1018 30.06 848 25.04 17.2 62.9 31 -0.1 31.8
13:15 1018 30.06 848 25.04 17.3 63.2 32 0.6 33.1
13:20 1018 30.06 848 25.04 17.2 62.9 33 0.8 33.4
13:25 1018 30.06 848 25.04 17.2 62.9 31 0.2 32.3
13:30 1018 30.06 847 25.01 17.7 63.9 31 0.3 32.5
13:35 1018 30.06 847 25.01 17.7 63.9 31 0.4 32.7
13:40 1018 30.06 847 25.01 17.7 63.9 31 0.7 33.2
13:45 1018 30.06 847 25.01 18.7 65.6 32 1.7 35
13:50 1018 30.06 847 25.01 18.6 65.4 30 0.7 33.2
13:55 1018 30.06 847 25.01 18.6 65.5 30 1.1 33.9
14:00 1018 30.06 847 25.01 19.2 66.5 30 1.3 34.3
14:05 1018 30.06 847 25.01 18.5 65.3 32 1.6 34.9
14:10 1018 30.06 847 25.01 18.8 65.9 30 1.2 34.1
14:15 1018 30.06 847 25.01 19.2 66.5 31 1.6 34.8
14:20 1018 30.06 847 25.01 19 66.1 31 1.5 34.7
14:25 1018 30.06 847 25.01 19 66.2 29 0.7 33.2
14:30 1018 30.06 847 25.01 19.1 66.3 30 1.5 34.6
14:35 1018 30.06 847 25.01 19.3 66.8 30 1.3 34.4
14:40 1018 30.06 847 25.01 19.1 66.4 31 1.8 35.2
14:45 1018 30.06 847 25.01 19.1 66.3 31 1.5 34.8
14:50 1018 30.06 847 25.01 19.6 67.2 30 1.6 34.9
14:55 1018 30.06 847 25.01 19.3 66.8 31 1.7 35.1
15:00 1018 30.06 847 25.01 19.2 66.6 31 1.7 35
15:05 1017 30.03 847 25.01 20 67.9 29 1.6 34.9
15:10 1017 30.03 847 25.01 20.2 68.4 27 0.9 33.7
15:15 1017 30.03 847 25.01 20.4 68.7 27 0.8 33.4
15:20 1017 30.03 847 25.01 20.1 68.2 27 0.8 33.4
15:25 1017 30.03 846 24.98 19.2 66.6 29 0.8 33.4
15:30 1017 30.03 846 24.98 19.1 66.3 28 0.4 32.8
15:35 1017 30.03 846 24.98 20 68.1 26 0.3 32.5
15:40 1017 30.03 846 24.98 20 68 28 1 33.8
15:45 1017 30.03 846 24.98 19.6 67.2 29 1.2 34.2
15:50 1017 30.03 846 24.98 19.5 67.1 28 0.5 32.9
15:55 1017 30.03 846 24.98 19.7 67.5 27 0.4 32.7
16:00 1017 30.03 846 24.98 20.5 69 27 1 33.9
16:05 1017 30.03 846 24.98 20.6 69.1 27 1.1 34
16:10 1017 30.03 846 24.98 20.6 69.1 26 0.8 33.5
16:15 1017 30.03 846 24.98 20.9 69.5 26 0.8 33.4
16:20 1017 30.03 846 24.98 21.2 70.2 25 0.8 33.5
16:25 1017 30.03 846 24.98 21.4 70.4 26 1 33.8
16:30 1017 30.03 846 24.98 20.8 69.4 26 0.9 33.5
16:35 1017 30.03 846 24.98 20.6 69.1 26 0.7 33.2
16:40 1017 30.03 846 24.98 20.6 69.1 25 0.2 32.3
16:45 1017 30.03 846 24.98 21.1 70 25 0.5 32.9
16:50 1017 30.03 846 24.98 19.7 67.5 26 0 32.1
16:55 1016 30 846 24.98 19.5 67.1 27 0.1 32.2
17:00 1016 30 846 24.98 20.4 68.7 25 -0 31.9
17:05 1016 30 846 24.98 20.6 69.1 24 -0.6 30.9
17:10 1016 30 846 24.98 20.2 68.3 26 0.2 32.3
17:15 1016 30 846 24.98 20.5 68.8 24 -0.6 30.9
17:20 1016 30 846 24.98 20.1 68.2 25 -0.2 31.6
17:25 1016 30 845 24.95 19.5 67.2 27 0 32.1
17:30 1016 30 846 24.98 19.3 66.8 27 -0 32
17:35 1016 30 845 24.95 20 68 26 -0 31.9
17:40 1016 30 845 24.95 20.5 68.8 26 0.3 32.5
17:45 1016 30 845 24.95 20.5 68.9 26 0.3 32.5
17:50 1016 30 845 24.95 20.2 68.3 26 0.4 32.7
17:55 1016 30 845 24.95 19.8 67.7 26 0.1 32.3
18:00 1016 30 845 24.95 19.5 67.1 27 0.1 32.1
18:05 1016 30 845 24.95 19.9 67.8 27 0.3 32.5
18:10 1016 30 845 24.95 20.3 68.5 26 0.4 32.7
18:15 1016 30 845 24.95 20.5 68.8 26 0.5 32.9
18:20 1016 30 845 24.95 20.1 68.2 26 0.2 32.3
18:25 1016 30 845 24.95 19.3 66.7 27 -0 31.9
18:30 1016 30 845 24.95 19.4 66.9 26 -0.3 31.4
18:35 1016 30 845 24.95 19.9 67.9 27 0.4 32.7
18:40 1016 30 845 24.95 19.7 67.5 28 0.6 33.2
18:45 1016 30 845 24.95 19.5 67.1 28 0.5 32.9
18:50 1016 30 845 24.95 20 68 26 -0.1 31.9
18:55 1016 30 845 24.95 19.9 67.8 26 0.2 32.3
19:00 1016 30 845 24.95 19.6 67.3 27 0.5 32.8
19:05 1016 30 845 24.95 19.1 66.4 28 0.4 32.7
19:10 1016 30 845 24.95 19.2 66.6 29 0.8 33.4
19:15 1016 30 845 24.95 19.2 66.5 29 0.8 33.5
19:20 1016 30 845 24.95 18.9 66 29 0.4 32.7
19:25 1016 30 845 24.95 18.8 65.8 29 0.4 32.7
19:30 1016 30 845 24.95 19.1 66.4 29 0.7 33.3
19:35 1016 30 845 24.95 19.2 66.5 28 0.3 32.6
19:40 1016 30 845 24.95 19 66.3 28 0.2 32.3
19:45 1016 30 845 24.95 18.8 65.8 28 0.3 32.5
19:50 1016 30 845 24.95 19 66.1 28 0.4 32.7
19:55 1016 30 845 24.95 19.1 66.3 29 0.9 33.7
20:00 1016 30 845 24.95 19.1 66.3 29 0.8 33.4
20:05 1016 30 845 24.95 18.8 65.8 29 0.5 32.9
20:10 1016 30 845 24.95 18.5 65.3 28 -0.2 31.7
20:15 1016 30 845 24.95 18.6 65.5 30 0.6 33.1
20:20 1016 30 845 24.95 18.6 65.5 30 0.9 33.7
20:25 1016 30 845 24.95 18.4 65.2 30 0.6 33
20:30 1016 30 845 24.95 18.2 64.8 34 2.1 35.9
20:35 1016 30 845 24.95 17.6 63.6 40 4.1 39.3
20:40 1016 30 845 24.95 17.2 63 50 7 44.5
20:45 1016 30 845 24.95 16.7 62.1 50 6.3 43.3
20:50 1016 30 845 24.95 16 60.8 54 6.9 44.4
20:55 1016 30 845 24.95 15.6 60 54 6.4 43.5
21:00 1016 30 845 24.95 15 59 56 6.3 43.3
21:05 1016 30 845 24.95 14.7 58.4 57 6.3 43.3
21:10 1016 30 845 24.95 14.4 57.8 58 6.3 43.4
21:15 1016 30 845 24.95 14 57.2 59 6.2 43.1
21:20 1016 30 845 24.95 13.7 56.6 58 5.6 42
21:25 1016 30 845 24.95 13.5 56.3 58 5.4 41.8
21:30 1016 30 845 24.95 13.3 56 56 4.9 40.8
21:35 1016 30 845 24.95 13.3 55.9 55 4.4 40
21:40 1016 30 845 24.95 13.2 55.7 59 5.3 41.6
21:45 1016 30 845 24.95 12.9 55.2 61 5.7 42.2
21:50 1016 30 845 24.95 12.5 54.5 60 5 41
21:55 1016 30 845 24.95 12.3 54.2 59 4.5 40.1
22:00 1016 30 845 24.95 12.4 54.3 56 4 39.2
22:05 1016 30 845 24.95 12.6 54.7 56 4.1 39.3
22:10 1016 30 845 24.95 12.3 54.1 58 4.2 39.6
22:15 1016 30 845 24.95 12 53.6 59 4.2 39.6
22:20 1016 30 845 24.95 12.1 53.8 57 3.9 39
22:25 1016 30 845 24.95 12.5 54.4 53 3.3 37.9
22:30 1016 30 845 24.95 12.3 54.1 54 3.3 38
22:35 1016 30 845 24.95 12.1 53.8 53 3 37.4
22:40 1016 30 845 24.95 12 53.6 56 3.6 38.4
22:45 1016 30 845 24.95 12 53.7 56 3.5 38.2
22:50 1016 30 845 24.95 11.9 53.5 57 3.7 38.6
22:55 1016 30 845 24.95 11.9 53.3 55 3.2 37.8
23:00 1016 30 845 24.95 11.9 53.5 55 3.2 37.8
23:05 1016 30 845 24.95 12 53.5 55 3.1 37.7
23:10 1016 30 845 24.95 11.9 53.4 55 3.1 37.7
23:15 1016 30 845 24.95 11.9 53.4 54 3 37.4
23:20 1016 30 845 24.95 12 53.5 54 2.9 37.2
23:25 1016 30 845 24.95 12.2 53.9 53 2.9 37.2
23:30 1016 30 845 24.95 12.3 54.1 53 3.1 37.7
23:35 1016 30 845 24.95 12.1 53.8 54 3.2 37.7
23:40 1016 30 845 24.95 12 53.5 54 3 37.4
23:45 1016 30 845 24.95 12.1 53.7 52 2.7 36.8
23:50 1016 30 845 24.95 12.3 54.2 52 2.7 36.8
23:55 1016 30 845 24.95 12.4 54.3 52 2.7 36.9
24:00 1016 30 845 24.95 12.4 54.3 51 2.6 36.7